Terminal Aerodrome Forecast
Issued by NWS Amarillo, TX

Home | Current Version | Previous Version | Text Only | Print | Product List | Glossary On
Versions: 1 2 3 4 5 6 7 8 9 10 11 12 13 14 15
146
FTUS44 KAMA 250524
TAFGUY
TAF
KGUY 250524Z 2506/2606 27010KT P6SM BKN300
     FM251500 33014KT P6SM BKN120
     FM252000 03013KT P6SM SCT050 OVC100
     FM260100 02013KT P6SM -SHRA OVC025=

USA.gov is the U.S. government's official web portal to all federal, state and local government web resources and services.